sensor_id;sensor_type;location;lat;lon;timestamp;P1;durP1;ratioP1;P2;durP2;ratioP2
3261;SDS011;1643;47.746;9.000;2024-02-28T00:00:54;14.50;;;10.33;;
3261;SDS011;1643;47.746;9.000;2024-02-28T00:03:20;15.20;;;10.77;;
3261;SDS011;1643;47.746;9.000;2024-02-28T00:05:47;19.43;;;11.30;;
3261;SDS011;1643;47.746;9.000;2024-02-28T00:08:13;16.20;;;11.10;;
3261;SDS011;1643;47.746;9.000;2024-02-28T00:10:38;18.27;;;10.93;;
3261;SDS011;1643;47.746;9.000;2024-02-28T00:13:04;16.53;;;11.47;;
3261;SDS011;1643;47.746;9.000;2024-02-28T00:15:30;17.30;;;11.83;;
3261;SDS011;1643;47.746;9.000;2024-02-28T00:17:55;19.40;;;13.07;;
3261;SDS011;1643;47.746;9.000;2024-02-28T00:20:21;16.30;;;11.23;;
3261;SDS011;1643;47.746;9.000;2024-02-28T00:22:48;18.30;;;12.53;;
3261;SDS011;1643;47.746;9.000;2024-02-28T00:25:14;14.97;;;10.27;;
3261;SDS011;1643;47.746;9.000;2024-02-28T00:27:40;16.03;;;11.57;;
3261;SDS011;1643;47.746;9.000;2024-02-28T00:30:06;16.17;;;10.80;;
3261;SDS011;1643;47.746;9.000;2024-02-28T00:32:32;17.27;;;11.40;;
3261;SDS011;1643;47.746;9.000;2024-02-28T00:34:58;16.40;;;11.13;;
3261;SDS011;1643;47.746;9.000;2024-02-28T00:37:23;14.47;;;10.73;;
3261;SDS011;1643;47.746;9.000;2024-02-28T00:39:50;16.67;;;11.40;;
3261;SDS011;1643;47.746;9.000;2024-02-28T00:42:16;17.57;;;11.77;;
3261;SDS011;1643;47.746;9.000;2024-02-28T00:44:41;14.53;;;10.10;;
3261;SDS011;1643;47.746;9.000;2024-02-28T00:47:08;16.57;;;10.83;;
3261;SDS011;1643;47.746;9.000;2024-02-28T00:49:34;16.40;;;10.93;;
3261;SDS011;1643;47.746;9.000;2024-02-28T00:52:00;16.80;;;11.50;;
3261;SDS011;1643;47.746;9.000;2024-02-28T00:54:26;17.47;;;11.83;;
3261;SDS011;1643;47.746;9.000;2024-02-28T00:56:52;15.30;;;10.30;;
3261;SDS011;1643;47.746;9.000;2024-02-28T00:59:17;14.70;;;10.30;;
3261;SDS011;1643;47.746;9.000;2024-02-28T01:01:43;15.63;;;10.80;;
3261;SDS011;1643;47.746;9.000;2024-02-28T01:04:09;19.13;;;11.40;;
3261;SDS011;1643;47.746;9.000;2024-02-28T01:06:34;17.20;;;11.77;;
3261;SDS011;1643;47.746;9.000;2024-02-28T01:09:00;15.43;;;10.00;;
3261;SDS011;1643;47.746;9.000;2024-02-28T01:11:26;15.87;;;10.73;;
3261;SDS011;1643;47.746;9.000;2024-02-28T01:13:51;15.20;;;10.53;;
3261;SDS011;1643;47.746;9.000;2024-02-28T01:16:17;17.43;;;11.00;;
3261;SDS011;1643;47.746;9.000;2024-02-28T01:18:42;15.77;;;10.53;;
3261;SDS011;1643;47.746;9.000;2024-02-28T01:21:08;16.80;;;11.13;;
3261;SDS011;1643;47.746;9.000;2024-02-28T01:23:34;16.93;;;11.50;;
3261;SDS011;1643;47.746;9.000;2024-02-28T01:26:00;16.30;;;11.20;;
3261;SDS011;1643;47.746;9.000;2024-02-28T01:28:28;16.67;;;11.70;;
3261;SDS011;1643;47.746;9.000;2024-02-28T01:30:53;15.30;;;10.10;;
3261;SDS011;1643;47.746;9.000;2024-02-28T01:33:19;14.17;;;10.83;;
3261;SDS011;1643;47.746;9.000;2024-02-28T01:35:45;14.03;;;10.67;;
3261;SDS011;1643;47.746;9.000;2024-02-28T01:38:10;17.00;;;10.50;;
3261;SDS011;1643;47.746;9.000;2024-02-28T01:40:36;15.90;;;9.53;;
3261;SDS011;1643;47.746;9.000;2024-02-28T01:43:02;12.83;;;9.60;;
3261;SDS011;1643;47.746;9.000;2024-02-28T01:45:37;16.13;;;9.70;;
3261;SDS011;1643;47.746;9.000;2024-02-28T01:48:03;14.57;;;10.60;;
3261;SDS011;1643;47.746;9.000;2024-02-28T01:50:31;14.70;;;10.83;;
3261;SDS011;1643;47.746;9.000;2024-02-28T01:52:57;15.80;;;10.27;;
3261;SDS011;1643;47.746;9.000;2024-02-28T01:55:23;16.07;;;10.33;;
3261;SDS011;1643;47.746;9.000;2024-02-28T01:57:49;17.40;;;9.60;;
3261;SDS011;1643;47.746;9.000;2024-02-28T02:00:16;14.37;;;9.77;;
3261;SDS011;1643;47.746;9.000;2024-02-28T02:02:43;16.07;;;10.33;;
3261;SDS011;1643;47.746;9.000;2024-02-28T02:05:09;15.77;;;10.07;;
3261;SDS011;1643;47.746;9.000;2024-02-28T02:07:35;14.67;;;9.80;;
3261;SDS011;1643;47.746;9.000;2024-02-28T02:10:01;17.57;;;10.93;;
3261;SDS011;1643;47.746;9.000;2024-02-28T02:12:27;13.03;;;9.70;;
3261;SDS011;1643;47.746;9.000;2024-02-28T02:14:52;15.80;;;11.07;;
3261;SDS011;1643;47.746;9.000;2024-02-28T02:17:18;15.40;;;11.50;;
3261;SDS011;1643;47.746;9.000;2024-02-28T02:19:44;20.00;;;11.00;;
3261;SDS011;1643;47.746;9.000;2024-02-28T02:22:10;14.63;;;10.27;;
3261;SDS011;1643;47.746;9.000;2024-02-28T02:24:38;12.50;;;9.60;;
3261;SDS011;1643;47.746;9.000;2024-02-28T02:27:04;15.20;;;10.30;;
3261;SDS011;1643;47.746;9.000;2024-02-28T02:29:30;14.83;;;10.50;;
3261;SDS011;1643;47.746;9.000;2024-02-28T02:31:56;14.43;;;10.13;;
3261;SDS011;1643;47.746;9.000;2024-02-28T02:34:22;17.43;;;10.43;;
3261;SDS011;1643;47.746;9.000;2024-02-28T02:36:47;14.73;;;10.00;;
3261;SDS011;1643;47.746;9.000;2024-02-28T02:39:13;14.23;;;9.83;;
3261;SDS011;1643;47.746;9.000;2024-02-28T02:41:38;16.73;;;10.70;;
3261;SDS011;1643;47.746;9.000;2024-02-28T02:44:05;13.23;;;9.17;;
3261;SDS011;1643;47.746;9.000;2024-02-28T02:46:32;12.03;;;8.90;;
3261;SDS011;1643;47.746;9.000;2024-02-28T02:48:58;14.63;;;10.13;;
3261;SDS011;1643;47.746;9.000;2024-02-28T02:51:23;16.00;;;10.33;;
3261;SDS011;1643;47.746;9.000;2024-02-28T02:53:50;13.27;;;9.60;;
3261;SDS011;1643;47.746;9.000;2024-02-28T02:56:16;12.07;;;9.10;;
3261;SDS011;1643;47.746;9.000;2024-02-28T02:58:41;18.20;;;10.30;;
3261;SDS011;1643;47.746;9.000;2024-02-28T03:01:07;14.83;;;9.20;;
3261;SDS011;1643;47.746;9.000;2024-02-28T03:03:33;13.30;;;9.50;;
3261;SDS011;1643;47.746;9.000;2024-02-28T03:05:59;19.70;;;12.43;;
3261;SDS011;1643;47.746;9.000;2024-02-28T03:08:25;15.57;;;10.60;;
3261;SDS011;1643;47.746;9.000;2024-02-28T03:10:50;14.63;;;9.77;;
3261;SDS011;1643;47.746;9.000;2024-02-28T03:13:16;17.57;;;10.80;;
3261;SDS011;1643;47.746;9.000;2024-02-28T03:15:43;15.57;;;10.40;;
3261;SDS011;1643;47.746;9.000;2024-02-28T03:18:09;20.90;;;11.40;;
3261;SDS011;1643;47.746;9.000;2024-02-28T03:20:34;16.63;;;10.77;;
3261;SDS011;1643;47.746;9.000;2024-02-28T03:23:03;19.00;;;12.40;;
3261;SDS011;1643;47.746;9.000;2024-02-28T03:25:31;17.30;;;11.10;;
3261;SDS011;1643;47.746;9.000;2024-02-28T03:27:57;17.00;;;11.33;;
3261;SDS011;1643;47.746;9.000;2024-02-28T03:30:24;17.60;;;11.50;;
3261;SDS011;1643;47.746;9.000;2024-02-28T03:32:50;15.70;;;11.20;;
3261;SDS011;1643;47.746;9.000;2024-02-28T03:35:16;15.00;;;10.07;;
3261;SDS011;1643;47.746;9.000;2024-02-28T03:37:41;17.97;;;10.70;;
3261;SDS011;1643;47.746;9.000;2024-02-28T03:40:07;18.27;;;10.80;;
3261;SDS011;1643;47.746;9.000;2024-02-28T03:42:33;19.37;;;10.97;;
3261;SDS011;1643;47.746;9.000;2024-02-28T03:44:59;15.57;;;10.53;;
3261;SDS011;1643;47.746;9.000;2024-02-28T03:47:24;20.57;;;11.60;;
3261;SDS011;1643;47.746;9.000;2024-02-28T03:49:50;13.87;;;9.50;;
3261;SDS011;1643;47.746;9.000;2024-02-28T03:52:16;11.67;;;9.03;;
3261;SDS011;1643;47.746;9.000;2024-02-28T03:54:42;14.97;;;10.27;;
3261;SDS011;1643;47.746;9.000;2024-02-28T03:57:09;16.73;;;11.03;;
3261;SDS011;1643;47.746;9.000;2024-02-28T03:59:34;18.77;;;11.13;;
3261;SDS011;1643;47.746;9.000;2024-02-28T04:02:00;13.70;;;9.73;;
3261;SDS011;1643;47.746;9.000;2024-02-28T04:04:25;12.80;;;8.87;;
3261;SDS011;1643;47.746;9.000;2024-02-28T04:06:51;16.43;;;10.50;;
3261;SDS011;1643;47.746;9.000;2024-02-28T04:09:17;15.90;;;10.30;;
3261;SDS011;1643;47.746;9.000;2024-02-28T04:11:42;13.83;;;8.90;;
3261;SDS011;1643;47.746;9.000;2024-02-28T04:14:08;17.07;;;11.00;;
3261;SDS011;1643;47.746;9.000;2024-02-28T04:16:34;16.80;;;10.27;;
3261;SDS011;1643;47.746;9.000;2024-02-28T04:18:59;14.00;;;10.20;;
3261;SDS011;1643;47.746;9.000;2024-02-28T04:21:25;15.10;;;9.67;;
3261;SDS011;1643;47.746;9.000;2024-02-28T04:23:51;17.13;;;10.77;;
3261;SDS011;1643;47.746;9.000;2024-02-28T04:26:16;14.73;;;10.53;;
3261;SDS011;1643;47.746;9.000;2024-02-28T04:28:42;14.43;;;9.20;;
3261;SDS011;1643;47.746;9.000;2024-02-28T04:31:08;20.23;;;11.13;;
3261;SDS011;1643;47.746;9.000;2024-02-28T04:33:34;15.47;;;10.33;;
3261;SDS011;1643;47.746;9.000;2024-02-28T04:36:01;17.60;;;10.97;;
3261;SDS011;1643;47.746;9.000;2024-02-28T04:38:27;16.97;;;11.10;;
3261;SDS011;1643;47.746;9.000;2024-02-28T04:40:52;13.43;;;10.23;;
3261;SDS011;1643;47.746;9.000;2024-02-28T04:43:18;18.70;;;12.00;;
3261;SDS011;1643;47.746;9.000;2024-02-28T04:45:43;13.37;;;9.40;;
3261;SDS011;1643;47.746;9.000;2024-02-28T04:48:09;15.73;;;9.60;;
3261;SDS011;1643;47.746;9.000;2024-02-28T04:50:35;11.83;;;9.13;;
3261;SDS011;1643;47.746;9.000;2024-02-28T04:53:00;12.97;;;8.57;;
3261;SDS011;1643;47.746;9.000;2024-02-28T04:55:26;13.00;;;8.63;;
3261;SDS011;1643;47.746;9.000;2024-02-28T04:57:52;10.93;;;8.17;;
3261;SDS011;1643;47.746;9.000;2024-02-28T05:00:17;14.87;;;9.47;;
3261;SDS011;1643;47.746;9.000;2024-02-28T05:02:43;11.00;;;8.67;;
3261;SDS011;1643;47.746;9.000;2024-02-28T05:05:09;12.80;;;8.90;;
3261;SDS011;1643;47.746;9.000;2024-02-28T05:07:34;11.83;;;9.30;;
3261;SDS011;1643;47.746;9.000;2024-02-28T05:10:00;13.10;;;9.97;;
3261;SDS011;1643;47.746;9.000;2024-02-28T05:12:26;12.27;;;9.03;;
3261;SDS011;1643;47.746;9.000;2024-02-28T05:14:51;11.47;;;7.70;;
3261;SDS011;1643;47.746;9.000;2024-02-28T05:17:17;13.93;;;9.10;;
3261;SDS011;1643;47.746;9.000;2024-02-28T05:19:43;12.40;;;8.23;;
3261;SDS011;1643;47.746;9.000;2024-02-28T05:22:08;12.73;;;8.70;;
3261;SDS011;1643;47.746;9.000;2024-02-28T05:24:36;10.30;;;7.47;;
3261;SDS011;1643;47.746;9.000;2024-02-28T05:27:02;11.70;;;7.93;;
3261;SDS011;1643;47.746;9.000;2024-02-28T05:29:27;11.63;;;9.33;;
3261;SDS011;1643;47.746;9.000;2024-02-28T05:31:53;14.70;;;10.07;;
3261;SDS011;1643;47.746;9.000;2024-02-28T05:34:19;10.80;;;8.30;;
3261;SDS011;1643;47.746;9.000;2024-02-28T05:36:45;12.50;;;9.00;;
3261;SDS011;1643;47.746;9.000;2024-02-28T05:39:11;12.20;;;7.93;;
3261;SDS011;1643;47.746;9.000;2024-02-28T05:41:36;15.97;;;9.27;;
3261;SDS011;1643;47.746;9.000;2024-02-28T05:44:02;10.90;;;7.40;;
3261;SDS011;1643;47.746;9.000;2024-02-28T05:46:27;14.60;;;9.00;;
3261;SDS011;1643;47.746;9.000;2024-02-28T05:48:53;11.83;;;9.17;;
3261;SDS011;1643;47.746;9.000;2024-02-28T05:51:19;11.57;;;8.57;;
3261;SDS011;1643;47.746;9.000;2024-02-28T05:53:44;16.90;;;10.50;;
3261;SDS011;1643;47.746;9.000;2024-02-28T05:56:10;14.07;;;9.97;;
3261;SDS011;1643;47.746;9.000;2024-02-28T05:58:40;12.80;;;7.83;;
3261;SDS011;1643;47.746;9.000;2024-02-28T06:01:06;13.67;;;8.43;;
3261;SDS011;1643;47.746;9.000;2024-02-28T06:03:35;15.30;;;9.73;;
3261;SDS011;1643;47.746;9.000;2024-02-28T06:06:04;13.20;;;8.97;;
3261;SDS011;1643;47.746;9.000;2024-02-28T06:08:33;11.43;;;8.57;;
3261;SDS011;1643;47.746;9.000;2024-02-28T06:11:00;12.73;;;8.20;;
3261;SDS011;1643;47.746;9.000;2024-02-28T06:13:26;12.80;;;8.70;;
3261;SDS011;1643;47.746;9.000;2024-02-28T06:15:53;12.70;;;9.17;;
3261;SDS011;1643;47.746;9.000;2024-02-28T06:18:19;14.50;;;9.77;;
3261;SDS011;1643;47.746;9.000;2024-02-28T06:20:45;14.63;;;8.67;;
3261;SDS011;1643;47.746;9.000;2024-02-28T06:23:10;16.53;;;8.90;;
3261;SDS011;1643;47.746;9.000;2024-02-28T06:25:36;10.73;;;8.03;;
3261;SDS011;1643;47.746;9.000;2024-02-28T06:28:01;13.10;;;8.40;;
3261;SDS011;1643;47.746;9.000;2024-02-28T06:30:30;13.87;;;8.83;;
3261;SDS011;1643;47.746;9.000;2024-02-28T06:32:58;13.47;;;7.90;;
3261;SDS011;1643;47.746;9.000;2024-02-28T06:35:25;10.83;;;8.10;;
3261;SDS011;1643;47.746;9.000;2024-02-28T06:37:50;17.53;;;10.40;;
3261;SDS011;1643;47.746;9.000;2024-02-28T06:40:16;19.20;;;10.57;;
3261;SDS011;1643;47.746;9.000;2024-02-28T06:42:42;17.23;;;11.10;;
3261;SDS011;1643;47.746;9.000;2024-02-28T06:45:08;12.87;;;9.07;;
3261;SDS011;1643;47.746;9.000;2024-02-28T06:47:34;13.83;;;9.10;;
3261;SDS011;1643;47.746;9.000;2024-02-28T06:50:01;11.93;;;8.13;;
3261;SDS011;1643;47.746;9.000;2024-02-28T06:52:27;12.53;;;9.23;;
3261;SDS011;1643;47.746;9.000;2024-02-28T06:54:53;12.20;;;8.43;;
3261;SDS011;1643;47.746;9.000;2024-02-28T06:57:19;13.53;;;8.57;;
3261;SDS011;1643;47.746;9.000;2024-02-28T06:59:44;11.33;;;8.40;;
3261;SDS011;1643;47.746;9.000;2024-02-28T07:02:10;12.50;;;8.60;;
3261;SDS011;1643;47.746;9.000;2024-02-28T07:04:36;16.23;;;9.63;;
3261;SDS011;1643;47.746;9.000;2024-02-28T07:07:03;11.93;;;8.27;;
3261;SDS011;1643;47.746;9.000;2024-02-28T07:09:29;16.03;;;8.90;;
3261;SDS011;1643;47.746;9.000;2024-02-28T07:11:57;13.30;;;8.77;;
3261;SDS011;1643;47.746;9.000;2024-02-28T07:14:23;14.30;;;9.97;;
3261;SDS011;1643;47.746;9.000;2024-02-28T07:16:49;16.63;;;10.43;;
3261;SDS011;1643;47.746;9.000;2024-02-28T07:19:17;17.37;;;11.20;;
3261;SDS011;1643;47.746;9.000;2024-02-28T07:21:43;14.50;;;10.40;;
3261;SDS011;1643;47.746;9.000;2024-02-28T07:24:09;11.77;;;9.00;;
3261;SDS011;1643;47.746;9.000;2024-02-28T07:26:35;15.87;;;10.47;;
3261;SDS011;1643;47.746;9.000;2024-02-28T07:29:00;15.37;;;8.83;;
3261;SDS011;1643;47.746;9.000;2024-02-28T07:31:26;13.37;;;9.20;;
3261;SDS011;1643;47.746;9.000;2024-02-28T07:33:52;13.90;;;9.23;;
3261;SDS011;1643;47.746;9.000;2024-02-28T07:36:17;13.50;;;8.90;;
3261;SDS011;1643;47.746;9.000;2024-02-28T07:38:44;12.80;;;9.53;;
3261;SDS011;1643;47.746;9.000;2024-02-28T07:41:09;12.60;;;9.00;;
3261;SDS011;1643;47.746;9.000;2024-02-28T07:43:35;12.00;;;9.00;;
3261;SDS011;1643;47.746;9.000;2024-02-28T07:46:07;14.00;;;8.83;;
3261;SDS011;1643;47.746;9.000;2024-02-28T07:48:33;12.00;;;8.27;;
3261;SDS011;1643;47.746;9.000;2024-02-28T07:50:59;10.00;;;8.30;;
3261;SDS011;1643;47.746;9.000;2024-02-28T07:53:26;13.10;;;9.57;;
3261;SDS011;1643;47.746;9.000;2024-02-28T07:55:51;14.70;;;9.80;;
3261;SDS011;1643;47.746;9.000;2024-02-28T07:58:17;13.23;;;7.90;;
3261;SDS011;1643;47.746;9.000;2024-02-28T08:00:43;12.93;;;8.67;;
3261;SDS011;1643;47.746;9.000;2024-02-28T08:03:09;12.63;;;9.03;;
3261;SDS011;1643;47.746;9.000;2024-02-28T08:05:35;11.17;;;8.33;;
3261;SDS011;1643;47.746;9.000;2024-02-28T08:08:04;16.13;;;9.17;;
3261;SDS011;1643;47.746;9.000;2024-02-28T08:10:31;12.40;;;8.70;;
3261;SDS011;1643;47.746;9.000;2024-02-28T08:12:57;13.03;;;9.33;;
3261;SDS011;1643;47.746;9.000;2024-02-28T08:15:22;12.60;;;9.27;;
3261;SDS011;1643;47.746;9.000;2024-02-28T08:17:48;12.70;;;9.17;;
3261;SDS011;1643;47.746;9.000;2024-02-28T08:20:14;17.47;;;11.30;;
3261;SDS011;1643;47.746;9.000;2024-02-28T08:22:39;16.87;;;10.17;;
3261;SDS011;1643;47.746;9.000;2024-02-28T08:25:05;13.27;;;9.20;;
3261;SDS011;1643;47.746;9.000;2024-02-28T08:27:32;18.80;;;10.60;;
3261;SDS011;1643;47.746;9.000;2024-02-28T08:29:59;16.30;;;9.83;;
3261;SDS011;1643;47.746;9.000;2024-02-28T08:32:25;15.80;;;9.53;;
3261;SDS011;1643;47.746;9.000;2024-02-28T08:34:51;14.03;;;10.03;;
3261;SDS011;1643;47.746;9.000;2024-02-28T08:37:19;12.50;;;8.93;;
3261;SDS011;1643;47.746;9.000;2024-02-28T08:39:44;12.60;;;8.77;;
3261;SDS011;1643;47.746;9.000;2024-02-28T08:42:10;14.77;;;9.60;;
3261;SDS011;1643;47.746;9.000;2024-02-28T08:44:37;16.20;;;9.80;;
3261;SDS011;1643;47.746;9.000;2024-02-28T08:47:03;14.90;;;9.13;;
3261;SDS011;1643;47.746;9.000;2024-02-28T08:49:28;15.73;;;9.37;;
3261;SDS011;1643;47.746;9.000;2024-02-28T08:51:55;16.13;;;10.13;;
3261;SDS011;1643;47.746;9.000;2024-02-28T08:54:22;16.87;;;10.30;;
3261;SDS011;1643;47.746;9.000;2024-02-28T08:56:47;12.77;;;9.17;;
3261;SDS011;1643;47.746;9.000;2024-02-28T08:59:13;13.50;;;9.70;;
3261;SDS011;1643;47.746;9.000;2024-02-28T09:01:39;16.87;;;10.50;;
3261;SDS011;1643;47.746;9.000;2024-02-28T09:04:06;15.03;;;9.87;;
3261;SDS011;1643;47.746;9.000;2024-02-28T09:06:32;12.67;;;9.50;;
3261;SDS011;1643;47.746;9.000;2024-02-28T09:08:58;16.13;;;9.40;;
3261;SDS011;1643;47.746;9.000;2024-02-28T09:11:23;15.43;;;9.90;;
3261;SDS011;1643;47.746;9.000;2024-02-28T09:13:50;15.13;;;9.63;;
3261;SDS011;1643;47.746;9.000;2024-02-28T09:16:16;15.13;;;10.13;;
3261;SDS011;1643;47.746;9.000;2024-02-28T09:18:41;13.23;;;9.70;;
3261;SDS011;1643;47.746;9.000;2024-02-28T09:21:07;15.27;;;9.60;;
3261;SDS011;1643;47.746;9.000;2024-02-28T09:23:33;16.67;;;9.53;;
3261;SDS011;1643;47.746;9.000;2024-02-28T09:26:02;15.17;;;10.63;;
3261;SDS011;1643;47.746;9.000;2024-02-28T09:28:29;16.93;;;9.90;;
3261;SDS011;1643;47.746;9.000;2024-02-28T09:30:54;17.07;;;9.87;;
3261;SDS011;1643;47.746;9.000;2024-02-28T09:33:20;16.70;;;10.47;;
3261;SDS011;1643;47.746;9.000;2024-02-28T09:35:46;16.67;;;10.30;;
3261;SDS011;1643;47.746;9.000;2024-02-28T09:38:11;15.33;;;10.30;;
3261;SDS011;1643;47.746;9.000;2024-02-28T09:40:37;19.37;;;12.00;;
3261;SDS011;1643;47.746;9.000;2024-02-28T09:43:03;17.93;;;11.17;;
3261;SDS011;1643;47.746;9.000;2024-02-28T09:45:30;19.87;;;10.67;;
3261;SDS011;1643;47.746;9.000;2024-02-28T09:47:57;15.53;;;11.10;;
3261;SDS011;1643;47.746;9.000;2024-02-28T09:50:28;18.30;;;11.87;;
3261;SDS011;1643;47.746;9.000;2024-02-28T09:52:55;16.63;;;11.50;;
3261;SDS011;1643;47.746;9.000;2024-02-28T09:55:20;14.47;;;10.10;;
3261;SDS011;1643;47.746;9.000;2024-02-28T09:57:47;15.10;;;10.20;;
3261;SDS011;1643;47.746;9.000;2024-02-28T10:00:15;17.70;;;12.10;;
3261;SDS011;1643;47.746;9.000;2024-02-28T10:02:44;16.67;;;11.57;;
3261;SDS011;1643;47.746;9.000;2024-02-28T10:05:12;17.13;;;11.30;;
3261;SDS011;1643;47.746;9.000;2024-02-28T10:07:39;18.30;;;11.70;;
3261;SDS011;1643;47.746;9.000;2024-02-28T10:10:05;17.77;;;10.87;;
3261;SDS011;1643;47.746;9.000;2024-02-28T10:12:33;15.00;;;10.87;;
3261;SDS011;1643;47.746;9.000;2024-02-28T10:15:00;16.97;;;11.17;;
3261;SDS011;1643;47.746;9.000;2024-02-28T10:17:26;14.97;;;10.80;;
3261;SDS011;1643;47.746;9.000;2024-02-28T10:19:52;16.90;;;11.27;;
3261;SDS011;1643;47.746;9.000;2024-02-28T10:22:18;22.00;;;12.20;;
3261;SDS011;1643;47.746;9.000;2024-02-28T10:24:43;21.70;;;13.43;;
3261;SDS011;1643;47.746;9.000;2024-02-28T10:27:09;23.83;;;13.50;;
3261;SDS011;1643;47.746;9.000;2024-02-28T10:29:35;20.10;;;13.30;;
3261;SDS011;1643;47.746;9.000;2024-02-28T10:32:01;33.43;;;21.63;;
3261;SDS011;1643;47.746;9.000;2024-02-28T10:34:30;23.20;;;15.17;;
3261;SDS011;1643;47.746;9.000;2024-02-28T10:36:57;26.50;;;16.40;;
3261;SDS011;1643;47.746;9.000;2024-02-28T10:39:24;24.70;;;15.70;;
3261;SDS011;1643;47.746;9.000;2024-02-28T10:41:51;25.43;;;15.57;;
3261;SDS011;1643;47.746;9.000;2024-02-28T10:44:18;25.77;;;16.10;;
3261;SDS011;1643;47.746;9.000;2024-02-28T10:46:48;22.40;;;13.93;;
3261;SDS011;1643;47.746;9.000;2024-02-28T10:49:15;23.07;;;14.73;;
3261;SDS011;1643;47.746;9.000;2024-02-28T10:51:40;22.30;;;13.47;;
3261;SDS011;1643;47.746;9.000;2024-02-28T10:54:13;19.17;;;12.93;;
3261;SDS011;1643;47.746;9.000;2024-02-28T10:56:40;19.83;;;12.97;;
3261;SDS011;1643;47.746;9.000;2024-02-28T10:59:08;20.50;;;12.47;;
3261;SDS011;1643;47.746;9.000;2024-02-28T11:01:35;19.33;;;13.17;;
3261;SDS011;1643;47.746;9.000;2024-02-28T11:04:03;19.20;;;12.30;;
3261;SDS011;1643;47.746;9.000;2024-02-28T11:06:30;18.00;;;12.03;;
3261;SDS011;1643;47.746;9.000;2024-02-28T11:08:58;20.37;;;12.37;;
3261;SDS011;1643;47.746;9.000;2024-02-28T11:11:29;19.23;;;11.87;;
3261;SDS011;1643;47.746;9.000;2024-02-28T11:13:56;18.23;;;12.53;;
3261;SDS011;1643;47.746;9.000;2024-02-28T11:16:26;19.43;;;12.87;;
3261;SDS011;1643;47.746;9.000;2024-02-28T11:18:52;19.70;;;12.90;;
3261;SDS011;1643;47.746;9.000;2024-02-28T11:21:18;22.40;;;12.90;;
3261;SDS011;1643;47.746;9.000;2024-02-28T11:23:47;19.57;;;12.27;;
3261;SDS011;1643;47.746;9.000;2024-02-28T11:26:13;16.57;;;11.90;;
3261;SDS011;1643;47.746;9.000;2024-02-28T11:28:39;21.93;;;14.57;;
3261;SDS011;1643;47.746;9.000;2024-02-28T11:31:05;23.53;;;14.37;;
3261;SDS011;1643;47.746;9.000;2024-02-28T11:33:31;20.73;;;13.87;;
3261;SDS011;1643;47.746;9.000;2024-02-28T11:35:58;18.17;;;12.80;;
3261;SDS011;1643;47.746;9.000;2024-02-28T11:38:27;19.67;;;12.30;;
3261;SDS011;1643;47.746;9.000;2024-02-28T11:40:53;19.60;;;13.07;;
3261;SDS011;1643;47.746;9.000;2024-02-28T11:43:20;16.23;;;11.13;;
3261;SDS011;1643;47.746;9.000;2024-02-28T11:45:46;21.80;;;13.13;;
3261;SDS011;1643;47.746;9.000;2024-02-28T11:48:12;15.23;;;11.00;;
3261;SDS011;1643;47.746;9.000;2024-02-28T11:50:39;18.60;;;12.27;;
3261;SDS011;1643;47.746;9.000;2024-02-28T11:53:05;17.97;;;12.20;;
3261;SDS011;1643;47.746;9.000;2024-02-28T11:55:32;18.67;;;13.03;;
3261;SDS011;1643;47.746;9.000;2024-02-28T11:57:57;17.97;;;11.93;;
3261;SDS011;1643;47.746;9.000;2024-02-28T12:00:23;19.70;;;12.00;;
3261;SDS011;1643;47.746;9.000;2024-02-28T12:02:49;18.63;;;12.03;;
3261;SDS011;1643;47.746;9.000;2024-02-28T12:05:14;19.13;;;12.73;;
3261;SDS011;1643;47.746;9.000;2024-02-28T12:07:40;17.17;;;11.60;;
3261;SDS011;1643;47.746;9.000;2024-02-28T12:10:06;15.53;;;10.20;;
3261;SDS011;1643;47.746;9.000;2024-02-28T12:12:34;19.43;;;11.70;;
3261;SDS011;1643;47.746;9.000;2024-02-28T12:15:00;15.80;;;10.97;;
3261;SDS011;1643;47.746;9.000;2024-02-28T12:17:28;18.90;;;12.30;;
3261;SDS011;1643;47.746;9.000;2024-02-28T12:19:54;16.67;;;11.70;;
3261;SDS011;1643;47.746;9.000;2024-02-28T12:22:21;16.90;;;12.10;;
3261;SDS011;1643;47.746;9.000;2024-02-28T12:24:47;18.20;;;12.17;;
3261;SDS011;1643;47.746;9.000;2024-02-28T12:27:12;31.93;;;16.57;;
3261;SDS011;1643;47.746;9.000;2024-02-28T12:29:38;27.07;;;15.80;;
3261;SDS011;1643;47.746;9.000;2024-02-28T12:32:04;27.20;;;17.27;;
3261;SDS011;1643;47.746;9.000;2024-02-28T12:34:29;18.53;;;13.50;;
3261;SDS011;1643;47.746;9.000;2024-02-28T12:36:55;22.90;;;15.70;;
3261;SDS011;1643;47.746;9.000;2024-02-28T12:39:21;21.70;;;13.30;;
3261;SDS011;1643;47.746;9.000;2024-02-28T12:41:47;18.50;;;12.67;;
3261;SDS011;1643;47.746;9.000;2024-02-28T12:44:13;16.70;;;11.97;;
3261;SDS011;1643;47.746;9.000;2024-02-28T12:46:39;21.57;;;13.57;;
3261;SDS011;1643;47.746;9.000;2024-02-28T12:49:04;19.37;;;13.13;;
3261;SDS011;1643;47.746;9.000;2024-02-28T12:51:40;22.47;;;14.97;;
3261;SDS011;1643;47.746;9.000;2024-02-28T12:54:07;19.00;;;12.97;;
3261;SDS011;1643;47.746;9.000;2024-02-28T12:56:37;19.80;;;12.70;;
3261;SDS011;1643;47.746;9.000;2024-02-28T12:59:04;17.73;;;12.67;;
3261;SDS011;1643;47.746;9.000;2024-02-28T13:01:32;16.20;;;11.67;;
3261;SDS011;1643;47.746;9.000;2024-02-28T13:03:58;18.17;;;11.50;;
3261;SDS011;1643;47.746;9.000;2024-02-28T13:06:23;20.80;;;11.63;;
3261;SDS011;1643;47.746;9.000;2024-02-28T13:08:49;20.57;;;12.03;;
3261;SDS011;1643;47.746;9.000;2024-02-28T13:11:18;16.60;;;11.90;;
3261;SDS011;1643;47.746;9.000;2024-02-28T13:13:45;19.83;;;13.63;;
3261;SDS011;1643;47.746;9.000;2024-02-28T13:16:18;17.50;;;11.50;;
3261;SDS011;1643;47.746;9.000;2024-02-28T13:18:45;19.87;;;12.10;;
3261;SDS011;1643;47.746;9.000;2024-02-28T13:21:11;18.57;;;12.83;;
3261;SDS011;1643;47.746;9.000;2024-02-28T13:23:37;18.70;;;12.80;;
3261;SDS011;1643;47.746;9.000;2024-02-28T13:26:03;16.50;;;12.93;;
3261;SDS011;1643;47.746;9.000;2024-02-28T13:28:30;19.77;;;12.40;;
3261;SDS011;1643;47.746;9.000;2024-02-28T13:30:59;18.07;;;12.20;;
3261;SDS011;1643;47.746;9.000;2024-02-28T13:33:26;18.27;;;13.17;;
3261;SDS011;1643;47.746;9.000;2024-02-28T13:35:52;18.90;;;13.20;;
3261;SDS011;1643;47.746;9.000;2024-02-28T13:38:19;18.17;;;12.63;;
3261;SDS011;1643;47.746;9.000;2024-02-28T13:40:46;19.87;;;13.33;;
3261;SDS011;1643;47.746;9.000;2024-02-28T13:43:15;19.93;;;13.40;;
3261;SDS011;1643;47.746;9.000;2024-02-28T13:45:48;22.00;;;14.67;;
3261;SDS011;1643;47.746;9.000;2024-02-28T13:48:23;23.07;;;14.50;;
3261;SDS011;1643;47.746;9.000;2024-02-28T13:50:50;18.20;;;13.30;;
3261;SDS011;1643;47.746;9.000;2024-02-28T13:53:16;20.40;;;13.70;;
3261;SDS011;1643;47.746;9.000;2024-02-28T13:55:42;20.30;;;14.37;;
3261;SDS011;1643;47.746;9.000;2024-02-28T13:58:10;18.07;;;12.70;;
3261;SDS011;1643;47.746;9.000;2024-02-28T14:00:37;22.10;;;14.47;;
3261;SDS011;1643;47.746;9.000;2024-02-28T14:03:03;17.90;;;12.90;;
3261;SDS011;1643;47.746;9.000;2024-02-28T14:05:30;17.07;;;12.77;;
3261;SDS011;1643;47.746;9.000;2024-02-28T14:07:56;19.70;;;13.00;;
3261;SDS011;1643;47.746;9.000;2024-02-28T14:10:25;22.20;;;14.17;;
3261;SDS011;1643;47.746;9.000;2024-02-28T14:12:51;21.30;;;14.07;;
3261;SDS011;1643;47.746;9.000;2024-02-28T14:15:20;24.30;;;15.00;;
3261;SDS011;1643;47.746;9.000;2024-02-28T14:17:46;19.70;;;13.77;;
3261;SDS011;1643;47.746;9.000;2024-02-28T14:20:12;20.57;;;13.53;;
3261;SDS011;1643;47.746;9.000;2024-02-28T14:22:38;20.13;;;14.53;;
3261;SDS011;1643;47.746;9.000;2024-02-28T14:25:07;18.77;;;13.30;;
3261;SDS011;1643;47.746;9.000;2024-02-28T14:27:36;24.67;;;14.27;;
3261;SDS011;1643;47.746;9.000;2024-02-28T14:30:02;18.43;;;13.30;;
3261;SDS011;1643;47.746;9.000;2024-02-28T14:32:32;17.40;;;12.37;;
3261;SDS011;1643;47.746;9.000;2024-02-28T14:34:58;17.40;;;12.60;;
3261;SDS011;1643;47.746;9.000;2024-02-28T14:37:24;21.60;;;12.77;;
3261;SDS011;1643;47.746;9.000;2024-02-28T14:39:49;19.60;;;13.47;;
3261;SDS011;1643;47.746;9.000;2024-02-28T14:42:15;16.93;;;11.57;;
3261;SDS011;1643;47.746;9.000;2024-02-28T14:44:41;19.60;;;14.63;;
3261;SDS011;1643;47.746;9.000;2024-02-28T14:47:06;16.77;;;11.83;;